QFA772 PAYA-PAFA
Flight info
| Callsign | QFA772 |
|---|---|
| Flight time | 1h 10m |
| Altitude | 36000 |
| Route | YAK J507 ORT J502 RDFLG HRDNG4 |
| Aircraft | B738/M-L/LB1 |
Departure
| Time | 2026-04-24 09:45 |
|---|---|
| Airport | Yakutat Airport (PAYA) |
Arrival
| Time | 2026-04-24 10:56 |
|---|---|
| Airport | Fairbanks International Airport (PAFA) |
| Time | Latitude | Longitude | Altitude | Speed | Heading |
|---|---|---|---|---|---|
| 2026-04-24 09:08 | 59.50737 | -139.67051 | 48 ft | 0 kts | 316° |
| 2026-04-24 09:35 | 59.50731 | -139.67041 | 48 ft | 2 kts | 316° |
| 2026-04-24 09:36 | 59.50718 | -139.67017 | 48 ft | 3 kts | 316° |
| 2026-04-24 09:36 | 59.50704 | -139.66989 | 48 ft | 3 kts | 316° |
| 2026-04-24 09:36 | 59.50689 | -139.66961 | 48 ft | 3 kts | 316° |
| 2026-04-24 09:36 | 59.50687 | -139.66958 | 48 ft | 0 kts | 316° |
| 2026-04-24 09:38 | 59.50688 | -139.66959 | 48 ft | 0 kts | 316° |
| 2026-04-24 09:38 | 59.50695 | -139.66972 | 48 ft | 2 kts | 320° |
| 2026-04-24 09:38 | 59.50714 | -139.66982 | 48 ft | 3 kts | 11° |
| 2026-04-24 09:39 | 59.50725 | -139.66946 | 48 ft | 5 kts | 97° |
| 2026-04-24 09:39 | 59.50706 | -139.66878 | 48 ft | 5 kts | 111° |
| 2026-04-24 09:39 | 59.50724 | -139.66788 | 48 ft | 15 kts | 45° |
| 2026-04-24 09:39 | 59.50801 | -139.66640 | 48 ft | 14 kts | 44° |
| 2026-04-24 09:40 | 59.50863 | -139.66521 | 48 ft | 11 kts | 44° |
| 2026-04-24 09:40 | 59.50910 | -139.66429 | 48 ft | 8 kts | 44° |
| 2026-04-24 09:40 | 59.50950 | -139.66353 | 48 ft | 8 kts | 44° |
| 2026-04-24 09:40 | 59.50989 | -139.66284 | 48 ft | 7 kts | 32° |
| 2026-04-24 09:41 | 59.51029 | -139.66287 | 48 ft | 5 kts | 327° |
| 2026-04-24 09:41 | 59.51061 | -139.66340 | 48 ft | 7 kts | 317° |
| 2026-04-24 09:41 | 59.51097 | -139.66420 | 48 ft | 9 kts | 309° |
| 2026-04-24 09:41 | 59.51115 | -139.66428 | 48 ft | 1 kts | 86° |
| 2026-04-24 09:42 | 59.51100 | -139.66378 | 48 ft | 7 kts | 133° |
| 2026-04-24 09:42 | 59.51097 | -139.66373 | 48 ft | 0 kts | 134° |
| 2026-04-24 09:43 | 59.51097 | -139.66372 | 48 ft | 0 kts | 134° |
| 2026-04-24 09:44 | 59.51072 | -139.66322 | 48 ft | 28 kts | 135° |
| 2026-04-24 09:45 | 59.50731 | -139.65650 | 48 ft | 109 kts | 135° |
| 2026-04-24 09:45 | 59.50029 | -139.64264 | 85 ft | 170 kts | 134° |
| 2026-04-24 09:45 | 59.49235 | -139.62692 | 1047 ft | 157 kts | 135° |
| 2026-04-24 09:45 | 59.48420 | -139.61108 | 1761 ft | 176 kts | 134° |
| 2026-04-24 09:46 | 59.47903 | -139.58872 | 2377 ft | 193 kts | 90° |
| 2026-04-24 09:46 | 59.48258 | -139.56238 | 3016 ft | 209 kts | 65° |
| 2026-04-24 09:46 | 59.49013 | -139.53670 | 3664 ft | 227 kts | 45° |
| 2026-04-24 09:46 | 59.50441 | -139.52216 | 4294 ft | 244 kts | 7° |
| 2026-04-24 09:47 | 59.52133 | -139.52822 | 4986 ft | 257 kts | 329° |
| 2026-04-24 09:47 | 59.53385 | -139.55256 | 5874 ft | 260 kts | 304° |
| 2026-04-24 09:47 | 59.54397 | -139.58242 | 6828 ft | 264 kts | 301° |
| 2026-04-24 09:47 | 59.55386 | -139.61315 | 7772 ft | 267 kts | 301° |
| 2026-04-24 09:48 | 59.56385 | -139.64435 | 8697 ft | 271 kts | 301° |
| 2026-04-24 09:48 | 59.57412 | -139.67577 | 9610 ft | 274 kts | 306° |
| 2026-04-24 09:48 | 59.58862 | -139.70072 | 10399 ft | 287 kts | 329° |
| 2026-04-24 09:48 | 59.60799 | -139.71417 | 11009 ft | 305 kts | 344° |
| 2026-04-24 09:49 | 59.62951 | -139.72176 | 11484 ft | 323 kts | 347° |
| 2026-04-24 09:49 | 59.65183 | -139.73024 | 11910 ft | 339 kts | 342° |
| 2026-04-24 09:49 | 59.67485 | -139.74261 | 12632 ft | 345 kts | 338° |
| 2026-04-24 09:49 | 59.69786 | -139.75747 | 13457 ft | 350 kts | 336° |
| 2026-04-24 09:50 | 59.72115 | -139.77281 | 14304 ft | 355 kts | 336° |
| 2026-04-24 09:50 | 59.74493 | -139.78757 | 15140 ft | 361 kts | 338° |
| 2026-04-24 09:50 | 59.76923 | -139.80180 | 15966 ft | 367 kts | 338° |
| 2026-04-24 09:50 | 59.79393 | -139.81608 | 16772 ft | 372 kts | 337° |
| 2026-04-24 09:51 | 59.81862 | -139.83062 | 17568 ft | 378 kts | 336° |
| 2026-04-24 09:51 | 59.84396 | -139.84588 | 18364 ft | 383 kts | 336° |
| 2026-04-24 09:51 | 59.86959 | -139.86145 | 19167 ft | 388 kts | 336° |
| 2026-04-24 09:51 | 59.89554 | -139.87715 | 19956 ft | 392 kts | 336° |
| 2026-04-24 09:52 | 59.92172 | -139.89291 | 20726 ft | 396 kts | 336° |
| 2026-04-24 09:52 | 59.94825 | -139.90886 | 21468 ft | 400 kts | 337° |
| 2026-04-24 09:52 | 59.97506 | -139.92504 | 22176 ft | 405 kts | 337° |
| 2026-04-24 09:52 | 60.00215 | -139.94144 | 22867 ft | 409 kts | 337° |
| 2026-04-24 09:53 | 60.02948 | -139.95804 | 23548 ft | 412 kts | 337° |
| 2026-04-24 09:53 | 60.05670 | -139.97460 | 24187 ft | 416 kts | 337° |
| 2026-04-24 09:53 | 60.08454 | -139.99155 | 24832 ft | 419 kts | 337° |
| 2026-04-24 09:53 | 60.11256 | -140.00862 | 25472 ft | 422 kts | 337° |
| 2026-04-24 09:54 | 60.14074 | -140.02583 | 26087 ft | 425 kts | 336° |
| 2026-04-24 09:54 | 60.16906 | -140.04318 | 26690 ft | 427 kts | 336° |
| 2026-04-24 09:54 | 60.19753 | -140.06064 | 27264 ft | 429 kts | 336° |
| 2026-04-24 09:54 | 60.22574 | -140.07797 | 27806 ft | 431 kts | 336° |
| 2026-04-24 09:55 | 60.25440 | -140.09560 | 28321 ft | 433 kts | 336° |
| 2026-04-24 09:55 | 60.28325 | -140.11338 | 28824 ft | 434 kts | 336° |
| 2026-04-24 09:55 | 60.31221 | -140.13127 | 29288 ft | 436 kts | 336° |
| 2026-04-24 09:55 | 60.34131 | -140.14929 | 29729 ft | 438 kts | 336° |
| 2026-04-24 09:56 | 60.37052 | -140.16741 | 30147 ft | 440 kts | 335° |
| 2026-04-24 09:56 | 60.39989 | -140.18567 | 30420 ft | 444 kts | 336° |
| 2026-04-24 09:56 | 60.42956 | -140.20417 | 30702 ft | 448 kts | 336° |
| 2026-04-24 09:56 | 60.45933 | -140.22271 | 31084 ft | 447 kts | 336° |
| 2026-04-24 09:57 | 60.48903 | -140.24120 | 31502 ft | 446 kts | 336° |
| 2026-04-24 09:57 | 60.51820 | -140.25940 | 31929 ft | 443 kts | 336° |
| 2026-04-24 09:57 | 60.54757 | -140.27781 | 32365 ft | 440 kts | 336° |
| 2026-04-24 09:57 | 60.57674 | -140.29616 | 32788 ft | 437 kts | 335° |
| 2026-04-24 09:58 | 60.60565 | -140.31438 | 33210 ft | 434 kts | 335° |
| 2026-04-24 09:58 | 60.63441 | -140.33253 | 33612 ft | 431 kts | 335° |
| 2026-04-24 09:58 | 60.66298 | -140.35058 | 34003 ft | 428 kts | 335° |
| 2026-04-24 09:58 | 60.69136 | -140.36855 | 34368 ft | 426 kts | 335° |
| 2026-04-24 09:59 | 60.71964 | -140.38650 | 34678 ft | 425 kts | 335° |
| 2026-04-24 09:59 | 60.74789 | -140.40448 | 34951 ft | 425 kts | 335° |
| 2026-04-24 09:59 | 60.77614 | -140.42249 | 35208 ft | 425 kts | 336° |
| 2026-04-24 09:59 | 60.80442 | -140.44053 | 35456 ft | 426 kts | 336° |
| 2026-04-24 10:00 | 60.83233 | -140.45835 | 35687 ft | 426 kts | 336° |
| 2026-04-24 10:00 | 60.86065 | -140.47647 | 35924 ft | 426 kts | 336° |
| 2026-04-24 10:00 | 60.88903 | -140.49469 | 36046 ft | 430 kts | 336° |
| 2026-04-24 10:00 | 60.91768 | -140.51314 | 36051 ft | 432 kts | 336° |
| 2026-04-24 10:01 | 60.97487 | -140.54992 | 36050 ft | 429 kts | 336° |
| 2026-04-24 10:01 | 61.03149 | -140.58650 | 36047 ft | 425 kts | 336° |
| 2026-04-24 10:02 | 61.08750 | -140.62294 | 36043 ft | 425 kts | 335° |
| 2026-04-24 10:02 | 61.14394 | -140.65972 | 36039 ft | 425 kts | 335° |
| 2026-04-24 10:03 | 61.20042 | -140.69664 | 36036 ft | 426 kts | 335° |
| 2026-04-24 10:03 | 61.25693 | -140.73375 | 36033 ft | 426 kts | 335° |
| 2026-04-24 10:04 | 61.31295 | -140.77067 | 36030 ft | 425 kts | 335° |
| 2026-04-24 10:04 | 61.36938 | -140.80801 | 36028 ft | 426 kts | 335° |
| 2026-04-24 10:05 | 61.42592 | -140.84557 | 36006 ft | 427 kts | 335° |
| 2026-04-24 10:05 | 61.48241 | -140.88319 | 35996 ft | 425 kts | 335° |
| 2026-04-24 10:06 | 61.56663 | -140.93962 | 35992 ft | 426 kts | 335° |
| 2026-04-24 10:07 | 61.62301 | -140.97759 | 35991 ft | 426 kts | 335° |
| 2026-04-24 10:07 | 61.67950 | -141.01571 | 35989 ft | 426 kts | 335° |
| 2026-04-24 10:08 | 61.73597 | -141.05399 | 35988 ft | 426 kts | 335° |
| 2026-04-24 10:08 | 61.79206 | -141.09219 | 35986 ft | 427 kts | 335° |
| 2026-04-24 10:09 | 61.84861 | -141.13083 | 35983 ft | 427 kts | 335° |
| 2026-04-24 10:09 | 61.90516 | -141.16960 | 35978 ft | 427 kts | 334° |
| 2026-04-24 10:10 | 61.96166 | -141.20852 | 35971 ft | 427 kts | 334° |
| 2026-04-24 10:10 | 62.01768 | -141.24725 | 35967 ft | 427 kts | 334° |
| 2026-04-24 10:11 | 62.07410 | -141.28640 | 35964 ft | 426 kts | 334° |
| 2026-04-24 10:11 | 62.13044 | -141.32565 | 35961 ft | 426 kts | 334° |
| 2026-04-24 10:12 | 62.18677 | -141.36507 | 35957 ft | 426 kts | 334° |
| 2026-04-24 10:12 | 62.24280 | -141.40442 | 35949 ft | 427 kts | 334° |
| 2026-04-24 10:13 | 62.29923 | -141.44419 | 35942 ft | 427 kts | 334° |
| 2026-04-24 10:13 | 62.35567 | -141.48413 | 35938 ft | 427 kts | 334° |
| 2026-04-24 10:14 | 62.41206 | -141.52421 | 35936 ft | 427 kts | 334° |
| 2026-04-24 10:14 | 62.46806 | -141.56416 | 35935 ft | 426 kts | 333° |
| 2026-04-24 10:15 | 62.52440 | -141.60449 | 35924 ft | 426 kts | 333° |
| 2026-04-24 10:15 | 62.58070 | -141.64500 | 35917 ft | 427 kts | 333° |
| 2026-04-24 10:16 | 62.63708 | -141.68574 | 35919 ft | 428 kts | 333° |
| 2026-04-24 10:16 | 62.69318 | -141.72637 | 35929 ft | 427 kts | 333° |
| 2026-04-24 10:17 | 62.74958 | -141.76740 | 35933 ft | 427 kts | 333° |
| 2026-04-24 10:17 | 62.80591 | -141.80858 | 35921 ft | 427 kts | 333° |
| 2026-04-24 10:18 | 62.86231 | -141.85000 | 35921 ft | 428 kts | 333° |
| 2026-04-24 10:18 | 62.91782 | -141.89349 | 35927 ft | 420 kts | 326° |
| 2026-04-24 10:19 | 62.96421 | -141.96500 | 35932 ft | 400 kts | 307° |
| 2026-04-24 10:19 | 62.99850 | -142.05966 | 35928 ft | 396 kts | 301° |
| 2026-04-24 10:20 | 63.03151 | -142.15731 | 35925 ft | 399 kts | 300° |
| 2026-04-24 10:20 | 63.06478 | -142.25448 | 35924 ft | 400 kts | 301° |
| 2026-04-24 10:21 | 63.09828 | -142.35236 | 35924 ft | 400 kts | 300° |
| 2026-04-24 10:21 | 63.13157 | -142.45068 | 35924 ft | 399 kts | 300° |
| 2026-04-24 10:22 | 63.16479 | -142.54905 | 35925 ft | 400 kts | 300° |
| 2026-04-24 10:22 | 63.19779 | -142.64710 | 35924 ft | 399 kts | 300° |
| 2026-04-24 10:23 | 63.23090 | -142.74599 | 35924 ft | 400 kts | 300° |
| 2026-04-24 10:23 | 63.26399 | -142.84528 | 35924 ft | 400 kts | 300° |
| 2026-04-24 10:24 | 63.29707 | -142.94492 | 35924 ft | 401 kts | 299° |
| 2026-04-24 10:24 | 63.32991 | -143.04429 | 35924 ft | 402 kts | 299° |
| 2026-04-24 10:25 | 63.36292 | -143.14459 | 35923 ft | 402 kts | 299° |
| 2026-04-24 10:25 | 63.39591 | -143.24531 | 35923 ft | 403 kts | 299° |
| 2026-04-24 10:26 | 63.42892 | -143.34656 | 35922 ft | 404 kts | 299° |
| 2026-04-24 10:26 | 63.46194 | -143.44823 | 35922 ft | 404 kts | 298° |
| 2026-04-24 10:27 | 63.49467 | -143.54949 | 35921 ft | 404 kts | 298° |
| 2026-04-24 10:27 | 63.52755 | -143.65170 | 35919 ft | 404 kts | 298° |
| 2026-04-24 10:28 | 63.56038 | -143.75427 | 35919 ft | 405 kts | 298° |
| 2026-04-24 10:28 | 63.59322 | -143.85727 | 35917 ft | 406 kts | 298° |
| 2026-04-24 10:29 | 63.62603 | -143.96049 | 35914 ft | 405 kts | 297° |
| 2026-04-24 10:29 | 63.65847 | -144.06321 | 35913 ft | 406 kts | 297° |
| 2026-04-24 10:29 | 63.67482 | -144.11520 | 35410 ft | 407 kts | 297° |
| 2026-04-24 10:30 | 63.69120 | -144.16732 | 34732 ft | 405 kts | 296° |
| 2026-04-24 10:30 | 63.70719 | -144.21796 | 34714 ft | 387 kts | 296° |
| 2026-04-24 10:30 | 63.72259 | -144.26688 | 34712 ft | 385 kts | 296° |
| 2026-04-24 10:31 | 63.75375 | -144.36773 | 34710 ft | 398 kts | 296° |
| 2026-04-24 10:31 | 63.76982 | -144.41950 | 34343 ft | 407 kts | 296° |
| 2026-04-24 10:31 | 63.78590 | -144.47110 | 33560 ft | 406 kts | 296° |
| 2026-04-24 10:31 | 63.80203 | -144.52266 | 32766 ft | 395 kts | 295° |
| 2026-04-24 10:32 | 63.81765 | -144.57285 | 32000 ft | 385 kts | 295° |
| 2026-04-24 10:32 | 63.83279 | -144.62202 | 31255 ft | 380 kts | 294° |
| 2026-04-24 10:32 | 63.84798 | -144.67229 | 30513 ft | 391 kts | 295° |
| 2026-04-24 10:32 | 63.86322 | -144.72235 | 29755 ft | 381 kts | 295° |
| 2026-04-24 10:33 | 63.87824 | -144.77103 | 29109 ft | 371 kts | 295° |
| 2026-04-24 10:33 | 63.89287 | -144.81874 | 28638 ft | 378 kts | 295° |
| 2026-04-24 10:33 | 63.90767 | -144.86779 | 28189 ft | 386 kts | 295° |
| 2026-04-24 10:33 | 63.92282 | -144.91780 | 27739 ft | 382 kts | 295° |
| 2026-04-24 10:34 | 63.93794 | -144.96749 | 27298 ft | 381 kts | 295° |
| 2026-04-24 10:34 | 63.95300 | -145.01709 | 26861 ft | 381 kts | 296° |
| 2026-04-24 10:34 | 63.96802 | -145.06682 | 26420 ft | 381 kts | 296° |
| 2026-04-24 10:34 | 63.98298 | -145.11654 | 25980 ft | 379 kts | 296° |
| 2026-04-24 10:35 | 63.99790 | -145.16626 | 25361 ft | 379 kts | 296° |
| 2026-04-24 10:35 | 64.01247 | -145.21479 | 24864 ft | 374 kts | 297° |
| 2026-04-24 10:35 | 64.02716 | -145.26388 | 24398 ft | 375 kts | 297° |
| 2026-04-24 10:35 | 64.04176 | -145.31281 | 23935 ft | 372 kts | 297° |
| 2026-04-24 10:36 | 64.05633 | -145.36179 | 23502 ft | 373 kts | 298° |
| 2026-04-24 10:36 | 64.07083 | -145.41056 | 23079 ft | 371 kts | 298° |
| 2026-04-24 10:36 | 64.08527 | -145.45927 | 22659 ft | 370 kts | 298° |
| 2026-04-24 10:36 | 64.09965 | -145.50781 | 22241 ft | 368 kts | 298° |
| 2026-04-24 10:37 | 64.11396 | -145.55626 | 21824 ft | 366 kts | 298° |
| 2026-04-24 10:37 | 64.12800 | -145.60390 | 21414 ft | 364 kts | 298° |
| 2026-04-24 10:37 | 64.14214 | -145.65201 | 20967 ft | 364 kts | 298° |
| 2026-04-24 10:37 | 64.15622 | -145.69998 | 20525 ft | 361 kts | 298° |
| 2026-04-24 10:38 | 64.17019 | -145.74769 | 20108 ft | 360 kts | 298° |
| 2026-04-24 10:38 | 64.18410 | -145.79532 | 19699 ft | 358 kts | 298° |
| 2026-04-24 10:38 | 64.19793 | -145.84273 | 19294 ft | 357 kts | 298° |
| 2026-04-24 10:38 | 64.21152 | -145.88945 | 18897 ft | 356 kts | 298° |
| 2026-04-24 10:39 | 64.22521 | -145.93662 | 18495 ft | 354 kts | 298° |
| 2026-04-24 10:39 | 64.23882 | -145.98358 | 18091 ft | 353 kts | 299° |
| 2026-04-24 10:39 | 64.25233 | -146.03031 | 17660 ft | 350 kts | 299° |
| 2026-04-24 10:39 | 64.26577 | -146.07691 | 17257 ft | 349 kts | 299° |
| 2026-04-24 10:40 | 64.27913 | -146.12342 | 16860 ft | 348 kts | 299° |
| 2026-04-24 10:40 | 64.29245 | -146.16983 | 16515 ft | 349 kts | 299° |
| 2026-04-24 10:40 | 64.30591 | -146.21686 | 16478 ft | 348 kts | 298° |
| 2026-04-24 10:40 | 64.31877 | -146.26305 | 16471 ft | 350 kts | 298° |
| 2026-04-24 10:41 | 64.33166 | -146.31069 | 16465 ft | 349 kts | 297° |
| 2026-04-24 10:41 | 64.34449 | -146.35838 | 16381 ft | 351 kts | 297° |
| 2026-04-24 10:41 | 64.35733 | -146.40574 | 15746 ft | 344 kts | 298° |
| 2026-04-24 10:41 | 64.36990 | -146.45168 | 15128 ft | 333 kts | 298° |
| 2026-04-24 10:42 | 64.38229 | -146.49713 | 14528 ft | 340 kts | 298° |
| 2026-04-24 10:42 | 64.39483 | -146.54355 | 13909 ft | 339 kts | 297° |
| 2026-04-24 10:42 | 64.40712 | -146.58898 | 13303 ft | 328 kts | 297° |
| 2026-04-24 10:42 | 64.41912 | -146.63342 | 12730 ft | 330 kts | 297° |
| 2026-04-24 10:43 | 64.43129 | -146.67876 | 12250 ft | 329 kts | 298° |
| 2026-04-24 10:43 | 64.44317 | -146.72298 | 11851 ft | 329 kts | 297° |
| 2026-04-24 10:43 | 64.45521 | -146.76791 | 11465 ft | 328 kts | 298° |
| 2026-04-24 10:43 | 64.46724 | -146.81284 | 11090 ft | 328 kts | 298° |
| 2026-04-24 10:44 | 64.47921 | -146.85766 | 10721 ft | 327 kts | 298° |
| 2026-04-24 10:44 | 64.49112 | -146.90234 | 10439 ft | 320 kts | 298° |
| 2026-04-24 10:44 | 64.50240 | -146.94458 | 10313 ft | 304 kts | 298° |
| 2026-04-24 10:44 | 64.51328 | -146.98549 | 10174 ft | 292 kts | 298° |
| 2026-04-24 10:45 | 64.52390 | -147.02564 | 10045 ft | 286 kts | 298° |
| 2026-04-24 10:45 | 64.53411 | -147.06436 | 9863 ft | 285 kts | 298° |
| 2026-04-24 10:45 | 64.54448 | -147.10376 | 9464 ft | 285 kts | 298° |
| 2026-04-24 10:45 | 64.55474 | -147.14267 | 9084 ft | 279 kts | 299° |
| 2026-04-24 10:46 | 64.56482 | -147.18093 | 8717 ft | 275 kts | 299° |
| 2026-04-24 10:46 | 64.57475 | -147.21870 | 8359 ft | 272 kts | 299° |
| 2026-04-24 10:46 | 64.58458 | -147.25619 | 8003 ft | 271 kts | 299° |
| 2026-04-24 10:46 | 64.58930 | -147.27424 | 7833 ft | 270 kts | 299° |
| 2026-04-24 10:47 | 64.59900 | -147.31144 | 7479 ft | 268 kts | 299° |
| 2026-04-24 10:47 | 64.60846 | -147.34774 | 7136 ft | 262 kts | 299° |
| 2026-04-24 10:47 | 64.61781 | -147.38350 | 6799 ft | 255 kts | 299° |
| 2026-04-24 10:47 | 64.62687 | -147.41823 | 6467 ft | 245 kts | 299° |
| 2026-04-24 10:48 | 64.63318 | -147.45427 | 6230 ft | 237 kts | 280° |
| 2026-04-24 10:48 | 64.63682 | -147.49082 | 6136 ft | 228 kts | 280° |
| 2026-04-24 10:48 | 64.64024 | -147.52635 | 6035 ft | 222 kts | 280° |
| 2026-04-24 10:48 | 64.64356 | -147.56131 | 5945 ft | 220 kts | 280° |
| 2026-04-24 10:49 | 64.64686 | -147.59621 | 5852 ft | 220 kts | 280° |
| 2026-04-24 10:49 | 64.65017 | -147.63104 | 5757 ft | 219 kts | 280° |
| 2026-04-24 10:49 | 64.65269 | -147.66556 | 5637 ft | 220 kts | 275° |
| 2026-04-24 10:49 | 64.65440 | -147.70124 | 5398 ft | 222 kts | 273° |
| 2026-04-24 10:50 | 64.65588 | -147.73671 | 5168 ft | 217 kts | 273° |
| 2026-04-24 10:50 | 64.65733 | -147.77175 | 4950 ft | 218 kts | 273° |
| 2026-04-24 10:50 | 64.65883 | -147.80697 | 4718 ft | 216 kts | 274° |
| 2026-04-24 10:50 | 64.66034 | -147.84151 | 4502 ft | 212 kts | 274° |
| 2026-04-24 10:51 | 64.66181 | -147.87528 | 4281 ft | 207 kts | 274° |
| 2026-04-24 10:51 | 64.66323 | -147.90826 | 4067 ft | 202 kts | 274° |
| 2026-04-24 10:51 | 64.66460 | -147.94030 | 3862 ft | 196 kts | 274° |
| 2026-04-24 10:51 | 64.66678 | -147.97093 | 3623 ft | 193 kts | 286° |
| 2026-04-24 10:52 | 64.67274 | -147.99865 | 3367 ft | 191 kts | 305° |
| 2026-04-24 10:52 | 64.68211 | -148.02031 | 3106 ft | 190 kts | 324° |
| 2026-04-24 10:52 | 64.69382 | -148.03373 | 2857 ft | 187 kts | 343° |
| 2026-04-24 10:52 | 64.70653 | -148.03782 | 2614 ft | 183 kts | 2° |
| 2026-04-24 10:53 | 64.71892 | -148.03264 | 2377 ft | 180 kts | 20° |
| 2026-04-24 10:53 | 64.72980 | -148.01925 | 2149 ft | 174 kts | 37° |
| 2026-04-24 10:53 | 64.73882 | -148.00278 | 1973 ft | 154 kts | 39° |
| 2026-04-24 10:53 | 64.74689 | -147.98802 | 1812 ft | 144 kts | 39° |
| 2026-04-24 10:54 | 64.75473 | -147.97369 | 1662 ft | 141 kts | 39° |
| 2026-04-24 10:54 | 64.76243 | -147.95960 | 1496 ft | 141 kts | 38° |
| 2026-04-24 10:54 | 64.77001 | -147.94557 | 1300 ft | 140 kts | 39° |
| 2026-04-24 10:54 | 64.77760 | -147.93147 | 1131 ft | 138 kts | 38° |
| 2026-04-24 10:55 | 64.78526 | -147.91751 | 926 ft | 140 kts | 38° |
| 2026-04-24 10:55 | 64.79290 | -147.90350 | 746 ft | 140 kts | 38° |
| 2026-04-24 10:55 | 64.80063 | -147.88947 | 557 ft | 140 kts | 38° |
| 2026-04-24 10:55 | 64.80814 | -147.87577 | 449 ft | 129 kts | 39° |
| 2026-04-24 10:56 | 64.81360 | -147.86572 | 448 ft | 68 kts | 38° |
| 2026-04-24 10:56 | 64.81543 | -147.86230 | 448 ft | 23 kts | 38° |
| 2026-04-24 10:56 | 64.81617 | -147.86211 | 448 ft | 8 kts | 336° |
| 2026-04-24 10:56 | 64.81624 | -147.86220 | 448 ft | 1 kts | 331° |
| 2026-04-24 10:57 | 64.81664 | -147.86309 | 448 ft | 8 kts | 309° |
| 2026-04-24 10:57 | 64.81675 | -147.86430 | 448 ft | 8 kts | 250° |
| 2026-04-24 10:57 | 64.81692 | -147.86543 | 448 ft | 8 kts | 310° |
| 2026-04-24 10:57 | 64.81724 | -147.86628 | 448 ft | 0 kts | 311° |
| 2026-04-24 10:58 | 64.81724 | -147.86629 | 448 ft | 0 kts | 311° |